Time;durP1;ratioP1;P1;durP2;ratioP2;P2;SDS_P1;SDS_P2;PMS_P1;PMS_P2;Temp;Humidity;BMP_temperature;BMP_pressure;BME280_temperature;BME280_humidity;BME280_pressure;Samples;Min_cycle;Max_cycle;Signal;HPM_P1;HPM_P2
2022/03/03 00:00:54;;;;;;;;;;;;;;;22.46;39.68;94932.63;2001949;29;1768;-70
2022/03/03 00:01:56;;;;;;;;;;;;;;;22.45;39.60;94930.97;2003238;29;1685;-71
2022/03/03 00:02:58;;;;;;;;;;;;;;;22.41;39.85;94935.13;2001993;29;1575;-71
2022/03/03 00:04:00;;;;;;;;;;;;;;;22.39;39.78;94932.66;2002503;29;1519;-71
2022/03/03 00:05:02;;;;;;;;;;;;;;;22.41;39.84;94937.78;2001400;29;1561;-70
2022/03/03 00:06:05;;;;;;;;;;;;;;;22.43;39.99;94927.72;2002473;29;1483;-71
2022/03/03 00:07:07;;;;;;;;;;;;;;;22.48;39.75;94925.19;2003643;29;1510;-71
2022/03/03 00:08:08;;;;;;;;;;;;;;;22.56;39.58;94927.56;2003323;29;1573;-70
2022/03/03 00:09:10;;;;;;;;;;;;;;;22.54;39.29;94924.31;2003606;29;1712;-69
2022/03/03 00:10:12;;;;;;;;;;;;;;;22.49;39.57;94924.16;2002188;29;1605;-70
2022/03/03 00:11:14;;;;;;;;;;;;;;;22.47;39.80;94923.53;2003391;29;1674;-70
2022/03/03 00:12:15;;;;;;;;;;;;;;;22.47;39.72;94915.53;2003429;29;1784;-70
2022/03/03 00:13:17;;;;;;;;;;;;;;;22.48;39.55;94927.84;2003015;29;1752;-69
2022/03/03 00:14:19;;;;;;;;;;;;;;;22.50;39.79;94916.94;2002995;29;1720;-70
2022/03/03 00:15:20;;;;;;;;;;;;;;;22.52;39.65;94920.22;2003648;29;1998;-70
2022/03/03 00:16:22;;;;;;;;;;;;;;;22.49;39.78;94918.81;1999599;29;1752;-71
2022/03/03 00:17:24;;;;;;;;;;;;;;;22.52;39.49;94912.22;2003260;29;1591;-70
2022/03/03 00:18:25;;;;;;;;;;;;;;;22.54;39.45;94908.28;2003980;29;1014;-71
2022/03/03 00:19:27;;;;;;;;;;;;;;;22.51;39.60;94916.72;2003201;29;1730;-70
2022/03/03 00:20:29;;;;;;;;;;;;;;;22.50;39.47;94923.09;2002650;29;1038;-69
2022/03/03 00:21:30;;;;;;;;;;;;;;;22.54;39.55;94913.63;2002521;29;1535;-70
2022/03/03 00:22:32;;;;;;;;;;;;;;;22.54;39.38;94915.47;2003863;29;1639;-69
2022/03/03 00:23:34;;;;;;;;;;;;;;;22.56;39.43;94916.88;2003277;29;1609;-69
2022/03/03 00:24:35;;;;;;;;;;;;;;;;;;2003123;29;1609;-69
2022/03/03 00:25:36;;;;;;;;;;;;;;;22.65;39.31;94914.75;2003353;29;1625;-70
2022/03/03 00:26:38;;;;;;;;;;;;;;;22.70;39.08;94912.22;2003204;29;1575;-69
2022/03/03 00:27:40;;;;;;;;;;;;;;;22.75;39.05;94912.38;1998816;29;1750;-71
2022/03/03 00:28:41;;;;;;;;;;;;;;;22.73;39.15;94908.28;2003403;29;1087;-70
2022/03/03 00:29:43;;;;;;;;;;;;;;;22.72;38.89;94912.84;2003568;29;1703;-70
2022/03/03 00:30:44;;;;;;;;;;;;;;;22.73;39.08;94906.44;2003244;29;1629;-69
2022/03/03 00:31:46;;;;;;;;;;;;;;;22.71;39.24;94915.72;2003030;29;1539;-69
2022/03/03 00:32:48;;;;;;;;;;;;;;;22.68;39.15;94909.78;2003044;29;1727;-69
2022/03/03 00:33:50;;;;;;;;;;;;;;;22.59;39.24;94908.41;2003325;29;1089;-69
2022/03/03 00:34:51;;;;;;;;;;;;;;;22.52;39.46;94909.53;2002086;29;1555;-69
2022/03/03 00:35:53;;;;;;;;;;;;;;;22.51;39.56;94913.22;1994809;29;1903;-69
2022/03/03 00:36:55;;;;;;;;;;;;;;;22.50;39.43;94911.59;2002976;29;1055;-70
2022/03/03 00:37:56;;;;;;;;;;;;;;;22.47;39.42;94904.84;2003294;29;1574;-69
2022/03/03 00:38:58;;;;;;;;;;;;;;;22.52;39.51;94913.03;1998621;29;1277;-70
2022/03/03 00:39:59;;;;;;;;;;;;;;;22.56;39.33;94908.84;2002612;29;1692;-71
2022/03/03 00:41:01;;;;;;;;;;;;;;;22.48;39.54;94914.47;2002649;29;1644;-70
2022/03/03 00:42:03;;;;;;;;;;;;;;;22.41;39.58;94913.75;2003173;29;1711;-70
2022/03/03 00:43:06;;;;;;;;;;;;;;;22.40;39.75;94902.22;2002901;29;1506;-72
2022/03/03 00:44:09;;;;;;;;;;;;;;;22.42;39.85;94910.00;2003210;29;1106;-70
2022/03/03 00:45:11;;;;;;;;;;;;;;;22.40;39.83;94904.91;2002849;29;1621;-69
2022/03/03 00:46:13;;;;;;;;;;;;;;;22.43;39.72;94909.00;2003440;29;1649;-69
2022/03/03 00:47:14;;;;;;;;;;;;;;;22.41;39.93;94903.84;2002251;29;1594;-70
2022/03/03 00:48:16;;;;;;;;;;;;;;;22.45;39.73;94899.72;1995296;29;1617;-72
2022/03/03 00:49:18;;;;;;;;;;;;;;;22.44;40.00;94902.59;1998339;29;1667;-70
2022/03/03 00:50:20;;;;;;;;;;;;;;;22.46;39.74;94900.53;2002041;29;1099;-70
2022/03/03 00:51:22;;;;;;;;;;;;;;;22.47;39.67;94902.16;2002443;29;1644;-70
2022/03/03 00:52:23;;;;;;;;;;;;;;;22.43;39.83;94906.31;2003262;29;1713;-69
2022/03/03 00:53:25;;;;;;;;;;;;;;;22.41;39.73;94903.03;2002613;29;1547;-70
2022/03/03 00:54:27;;;;;;;;;;;;;;;22.42;40.07;94899.31;1995081;29;1743;-69
2022/03/03 00:55:28;;;;;;;;;;;;;;;22.41;39.88;94903.84;2002539;29;1656;-70
2022/03/03 00:56:30;;;;;;;;;;;;;;;22.38;39.88;94908.84;2003326;29;1988;-71
2022/03/03 00:57:31;;;;;;;;;;;;;;;22.40;39.95;94909.44;2002717;29;1860;-70
2022/03/03 00:58:33;;;;;;;;;;;;;;;22.38;39.83;94917.66;2002453;29;1687;-68
2022/03/03 00:59:35;;;;;;;;;;;;;;;22.37;40.05;94912.53;2002639;29;1085;-70
2022/03/03 01:00:36;;;;;;;;;;;;;;;22.37;40.05;94901.84;1998506;29;1491;-70
2022/03/03 01:01:38;;;;;;;;;;;;;;;22.38;39.76;94908.84;2002768;29;1051;-69
2022/03/03 01:02:40;;;;;;;;;;;;;;;22.36;39.87;94913.56;2002818;29;1673;-70
2022/03/03 01:03:42;;;;;;;;;;;;;;;22.37;39.98;94907.19;2003095;29;1679;-69
2022/03/03 01:04:44;;;;;;;;;;;;;;;22.41;39.70;94903.03;2002604;29;1478;-69
2022/03/03 01:05:45;;;;;;;;;;;;;;;22.38;39.82;94908.84;2002701;29;1742;-70
2022/03/03 01:06:47;;;;;;;;;;;;;;;22.34;39.88;94910.28;2003417;29;1110;-70
2022/03/03 01:07:48;;;;;;;;;;;;;;;22.32;40.10;94910.53;2003039;29;1645;-69
2022/03/03 01:08:50;;;;;;;;;;;;;;;22.31;39.94;94905.38;1995550;29;960;-69
2022/03/03 01:09:51;;;;;;;;;;;;;;;22.32;40.10;94899.03;1995572;29;1250;-69
2022/03/03 01:10:53;;;;;;;;;;;;;;;22.31;40.02;94906.19;1995497;29;1122;-70
2022/03/03 01:11:55;;;;;;;;;;;;;;;22.34;39.78;94904.94;1997242;29;1650;-70
2022/03/03 01:12:56;;;;;;;;;;;;;;;22.35;39.71;94903.94;2002537;29;1516;-70
2022/03/03 01:13:58;;;;;;;;;;;;;;;22.37;40.25;94904.50;2001934;29;1576;-69
2022/03/03 01:15:00;;;;;;;;;;;;;;;22.39;39.95;94899.78;1994412;29;1682;-69
2022/03/03 01:16:02;;;;;;;;;;;;;;;22.42;39.79;94905.47;2002533;29;1911;-68
2022/03/03 01:17:04;;;;;;;;;;;;;;;22.43;39.78;94906.31;2002144;29;1749;-69
2022/03/03 01:18:06;;;;;;;;;;;;;;;22.45;39.99;94898.88;1994471;29;1624;-68
2022/03/03 01:19:07;;;;;;;;;;;;;;;22.42;39.87;94902.00;1994987;29;1616;-69
2022/03/03 01:20:09;;;;;;;;;;;;;;;22.39;39.87;94899.78;2001804;29;1053;-70
2022/03/03 01:21:11;;;;;;;;;;;;;;;22.34;40.07;94903.13;2002415;29;1778;-69
2022/03/03 01:22:14;;;;;;;;;;;;;;;22.34;39.92;94899.59;1999338;29;1558;-69
2022/03/03 01:23:16;;;;;;;;;;;;;;;22.37;40.18;94897.31;2001727;29;1516;-69
2022/03/03 01:24:18;;;;;;;;;;;;;;;22.37;40.21;94891.97;2002391;29;1195;-69
2022/03/03 01:25:20;;;;;;;;;;;;;;;22.38;40.12;94892.78;2001588;29;1699;-70
2022/03/03 01:26:22;;;;;;;;;;;;;;;22.37;40.13;94893.81;1994758;29;1756;-69
2022/03/03 01:27:24;;;;;;;;;;;;;;;22.33;40.21;94889.97;1988570;29;1513;-68
2022/03/03 01:28:26;;;;;;;;;;;;;;;22.34;40.12;94894.25;1995092;29;1188;-69
2022/03/03 01:29:27;;;;;;;;;;;;;;;22.37;40.13;94883.13;1997348;29;1515;-69
2022/03/03 01:30:29;;;;;;;;;;;;;;;22.37;39.95;94886.63;2003135;29;1113;-70
2022/03/03 01:31:31;;;;;;;;;;;;;;;22.40;39.85;94891.53;2001564;29;1689;-70
2022/03/03 01:32:33;;;;;;;;;;;;;;;22.37;40.31;94891.97;2002156;29;1289;-70
2022/03/03 01:33:34;;;;;;;;;;;;;;;22.37;40.07;94886.63;1998136;29;1583;-70
2022/03/03 01:34:37;;;;;;;;;;;;;;;22.40;40.08;94893.41;2002518;29;1542;-70
2022/03/03 01:35:39;;;;;;;;;;;;;;;22.46;39.99;94889.84;2002248;29;1057;-71
2022/03/03 01:36:41;;;;;;;;;;;;;;;22.48;39.90;94892.28;2002007;29;1911;-69
2022/03/03 01:37:42;;;;;;;;;;;;;;;22.44;40.22;94883.91;2002952;29;1760;-71
2022/03/03 01:38:44;;;;;;;;;;;;;;;22.45;40.29;94888.19;2002847;29;1507;-71
2022/03/03 01:39:46;;;;;;;;;;;;;;;22.44;39.98;94878.56;2002835;29;1455;-71
2022/03/03 01:40:47;;;;;;;;;;;;;;;22.43;40.15;94880.41;2002795;29;1503;-68
2022/03/03 01:41:49;;;;;;;;;;;;;;;22.50;40.23;94883.00;2002406;29;1524;-68
2022/03/03 01:42:51;;;;;;;;;;;;;;;22.49;40.14;94884.06;2002685;29;1034;-68
2022/03/03 01:43:53;;;;;;;;;;;;;;;22.48;40.17;94881.59;2002555;29;1692;-70
2022/03/03 01:44:54;;;;;;;;;;;;;;;22.43;40.32;94874.25;1998342;29;1671;-69
2022/03/03 01:45:56;;;;;;;;;;;;;;;22.42;40.34;94877.94;2002061;29;1706;-69
2022/03/03 01:46:58;;;;;;;;;;;;;;;22.41;40.35;94876.31;2001772;29;1734;-69
2022/03/03 01:48:00;;;;;;;;;;;;;;;22.40;40.21;94872.03;2002845;29;1720;-69
2022/03/03 01:49:01;;;;;;;;;;;;;;;22.39;40.35;94873.84;2002007;29;1566;-69
2022/03/03 01:50:04;;;;;;;;;;;;;;;22.42;40.13;94877.94;2001766;29;1559;-69
2022/03/03 01:51:05;;;;;;;;;;;;;;;22.40;40.37;94878.19;2002986;29;1117;-69
2022/03/03 01:52:07;;;;;;;;;;;;;;;22.40;40.34;94872.84;2002568;29;1736;-69
2022/03/03 01:53:08;;;;;;;;;;;;;;;22.39;40.41;94875.72;2003315;29;1075;-69
2022/03/03 01:54:11;;;;;;;;;;;;;;;22.36;40.38;94873.47;2001293;29;1683;-69
2022/03/03 01:55:12;;;;;;;;;;;;;;;22.38;40.37;94876.75;1998971;29;1670;-68
2022/03/03 01:56:14;;;;;;;;;;;;;;;22.39;40.19;94867.69;1998678;29;1524;-68
2022/03/03 01:57:19;;;;;;;;;;;;;;;22.35;40.47;94874.53;2002217;29;2042;-69
2022/03/03 01:58:21;;;;;;;;;;;;;;;22.38;40.37;94874.09;2003130;29;987;-69
2022/03/03 01:59:23;;;;;;;;;;;;;;;22.42;40.27;94873.41;2002508;29;1492;-69
2022/03/03 02:00:25;;;;;;;;;;;;;;;22.41;40.26;94868.28;2002066;29;1679;-69
2022/03/03 02:01:26;;;;;;;;;;;;;;;22.43;40.05;94869.72;2002185;29;1507;-69
2022/03/03 02:02:28;;;;;;;;;;;;;;;22.39;40.22;94867.69;2002600;29;1708;-69
2022/03/03 02:03:30;;;;;;;;;;;;;;;22.35;40.41;94869.19;2002992;29;1708;-69
2022/03/03 02:04:32;;;;;;;;;;;;;;;22.35;40.60;94867.31;2002490;29;1663;-69
2022/03/03 02:05:34;;;;;;;;;;;;;;;22.34;40.34;94864.84;2002526;29;1715;-69
2022/03/03 02:06:37;;;;;;;;;;;;;;;22.36;40.33;94862.78;1998427;29;1725;-69
2022/03/03 02:07:39;;;;;;;;;;;;;;;22.36;40.33;94868.13;2001880;29;1631;-68
2022/03/03 02:08:40;;;;;;;;;;;;;;;22.37;40.21;94865.25;2002339;29;1059;-69
2022/03/03 02:09:42;;;;;;;;;;;;;;;22.36;40.38;94862.78;2002791;29;1125;-68
2022/03/03 02:10:44;;;;;;;;;;;;;;;22.33;40.26;94863.22;2002520;29;1502;-69
2022/03/03 02:11:46;;;;;;;;;;;;;;;22.34;40.36;94860.34;2001494;29;1658;-69
2022/03/03 02:12:48;;;;;;;;;;;;;;;22.31;40.26;94863.44;2001610;29;1862;-69
2022/03/03 02:13:50;;;;;;;;;;;;;;;22.33;40.50;94863.22;2001873;29;1504;-69
2022/03/03 02:14:51;;;;;;;;;;;;;;;22.37;40.44;94867.09;2001648;29;1669;-68
2022/03/03 02:15:54;;;;;;;;;;;;;;;22.37;40.30;94864.41;2001873;29;1110;-69
2022/03/03 02:16:56;;;;;;;;;;;;;;;22.36;40.20;94863.59;2002525;29;2046;-69
2022/03/03 02:17:57;;;;;;;;;;;;;;;22.38;40.37;94863.41;1999100;29;1178;-69
2022/03/03 02:18:59;;;;;;;;;;;;;;;22.40;40.10;94869.34;2002006;29;1625;-69
2022/03/03 02:20:07;;;;;;;;;;;;;;;22.38;40.25;94864.22;2002561;29;1665;-70
2022/03/03 02:21:13;;;;;;;;;;;;;;;22.35;40.34;94866.50;2002595;29;1664;-70
2022/03/03 02:22:15;;;;;;;;;;;;;;;22.35;40.32;94867.31;1995027;29;1725;-70
2022/03/03 02:23:18;;;;;;;;;;;;;;;22.38;40.41;94866.06;2000889;29;1698;-71
2022/03/03 02:24:20;;;;;;;;;;;;;;;22.45;40.13;94866.81;2009693;29;1106;-70
2022/03/03 02:25:22;;;;;;;;;;;;;;;22.42;40.43;94875.28;2001273;29;1749;-71
2022/03/03 02:26:24;;;;;;;;;;;;;;;22.41;40.38;94866.44;2001578;29;1314;-69
2022/03/03 02:27:25;;;;;;;;;;;;;;;22.42;40.33;94872.59;2002249;29;1817;-70
2022/03/03 02:28:27;;;;;;;;;;;;;;;22.42;40.34;94865.38;1998476;29;1695;-69
2022/03/03 02:29:29;;;;;;;;;;;;;;;22.43;40.29;94871.56;2002214;29;1443;-71
2022/03/03 02:30:31;;;;;;;;;;;;;;;22.42;40.38;94862.72;2002608;29;1677;-70
2022/03/03 02:31:33;;;;;;;;;;;;;;;22.45;40.44;94864.97;2001636;29;1706;-70
2022/03/03 02:32:34;;;;;;;;;;;;;;;22.43;40.37;94863.56;2001973;29;1740;-70
2022/03/03 02:33:36;;;;;;;;;;;;;;;22.45;40.18;94864.13;2001504;29;1710;-72
2022/03/03 02:34:37;;;;;;;;;;;;;;;22.52;40.20;94869.44;2002411;29;1573;-70
2022/03/03 02:35:39;;;;;;;;;;;;;;;22.49;40.47;94862.66;2002441;29;1727;-70
2022/03/03 02:36:41;;;;;;;;;;;;;;;22.42;40.39;94870.72;2001707;29;1907;-70
2022/03/03 02:37:43;;;;;;;;;;;;;;;22.40;40.66;94869.34;2001866;29;1705;-70
2022/03/03 02:38:45;;;;;;;;;;;;;;;22.44;40.18;94871.34;2002214;29;1645;-69
2022/03/03 02:39:47;;;;;;;;;;;;;;;22.47;40.29;94870.09;1998321;29;1753;-69
2022/03/03 02:40:49;;;;;;;;;;;;;;;22.46;40.27;94868.47;2002491;29;1653;-70
2022/03/03 02:41:50;;;;;;;;;;;;;;;22.42;40.57;94876.09;2001300;29;1651;-69
2022/03/03 02:42:53;;;;;;;;;;;;;;;22.43;40.55;94874.25;2001909;29;1655;-69
2022/03/03 02:43:56;;;;;;;;;;;;;;;22.42;40.36;94873.41;2001745;29;1676;-71
2022/03/03 02:44:58;;;;;;;;;;;;;;;22.41;40.59;94870.97;2001592;29;1738;-70
2022/03/03 02:46:01;;;;;;;;;;;;;;;22.39;40.37;94865.84;2001426;29;1628;-71
2022/03/03 02:47:03;;;;;;;;;;;;;;;22.41;40.80;94868.28;2002526;29;1157;-70
2022/03/03 02:48:04;;;;;;;;;;;;;;;22.38;40.69;94872.22;2001865;29;1694;-70
2022/03/03 02:49:06;;;;;;;;;;;;;;;22.40;40.72;94869.34;2001304;29;1237;-72
2022/03/03 02:50:11;;;;;;;;;;;;;;;22.40;40.61;94874.69;1994145;29;1651;-70
2022/03/03 02:51:13;;;;;;;;;;;;;;;22.47;40.97;94864.75;1998406;29;1169;-71
2022/03/03 02:52:14;;;;;;;;;;;;;;;22.59;40.33;94868.31;2001688;29;1722;-71
2022/03/03 02:53:16;;;;;;;;;;;;;;;22.60;40.18;94875.31;2002808;29;1656;-71
2022/03/03 02:54:18;;;;;;;;;;;;;;;22.68;40.12;94872.34;2002529;29;1669;-71
2022/03/03 02:55:20;;;;;;;;;;;;;;;22.64;40.28;94870.31;2002245;29;1618;-70
2022/03/03 02:56:23;;;;;;;;;;;;;;;22.67;40.07;94873.38;2001925;29;1634;-71
2022/03/03 02:58:45;;;;;;;;;;;;;;;22.68;40.12;94877.69;2002560;29;1503;-70
2022/03/03 02:59:47;;;;;;;;;;;;;;;22.64;40.03;94875.69;2002163;29;1681;-70
2022/03/03 03:00:48;;;;;;;;;;;;;;;22.58;40.20;94872.03;2001750;29;1715;-71
2022/03/03 03:01:50;;;;;;;;;;;;;;;22.64;40.27;94868.47;1998367;29;1599;-71
2022/03/03 03:02:53;;;;;;;;;;;;;;;22.66;39.98;94866.41;2002318;29;1482;-69
2022/03/03 03:03:54;;;;;;;;;;;;;;;22.73;39.96;94869.00;2001961;29;1743;-70
2022/03/03 03:04:56;;;;;;;;;;;;;;;22.78;39.69;94868.34;2001265;29;1684;-70
2022/03/03 03:05:58;;;;;;;;;;;;;;;22.80;39.60;94871.63;2002010;29;1122;-70
2022/03/03 03:07:00;;;;;;;;;;;;;;;22.80;39.68;94868.94;2002316;29;1702;-69
2022/03/03 03:08:02;;;;;;;;;;;;;;;22.82;39.76;94873.00;2002254;29;1471;-70
2022/03/03 03:09:03;;;;;;;;;;;;;;;22.89;39.52;94873.75;2002819;29;1321;-70
2022/03/03 03:10:06;;;;;;;;;;;;;;;22.87;39.40;94872.34;2002215;29;1677;-72
2022/03/03 03:11:07;;;;;;;;;;;;;;;22.84;39.57;94878.13;2002455;29;1077;-71
2022/03/03 03:12:09;;;;;;;;;;;;;;;22.88;39.26;94872.13;2001783;29;1665;-71
2022/03/03 03:13:14;;;;;;;;;;;;;;;22.85;39.36;94866.38;1991504;29;1080;-71
2022/03/03 03:14:16;;;;;;;;;;;;;;;22.71;39.83;94875.59;1999780;29;1632;-70
2022/03/03 03:15:18;;;;;;;;;;;;;;;22.63;39.99;94869.53;2002198;29;1559;-70
2022/03/03 03:16:20;;;;;;;;;;;;;;;22.66;40.05;94873.59;2002626;29;1157;-69
2022/03/03 03:17:22;;;;;;;;;;;;;;;22.66;39.80;94877.09;2002030;29;1911;-69
2022/03/03 03:18:23;;;;;;;;;;;;;;;22.60;39.88;94874.50;2001802;29;1105;-70
2022/03/03 03:19:25;;;;;;;;;;;;;;;22.56;40.08;94866.06;2001780;29;1684;-69
2022/03/03 03:20:26;;;;;;;;;;;;;;;22.62;40.07;94881.22;2002753;29;1002;-70
2022/03/03 03:21:28;;;;;;;;;;;;;;;22.58;39.98;94871.22;2002229;29;1684;-72
2022/03/03 03:22:30;;;;;;;;;;;;;;;22.58;40.06;94877.38;2001807;29;1751;-71
2022/03/03 03:23:31;;;;;;;;;;;;;;;22.68;39.79;94876.84;1998528;29;1562;-72
2022/03/03 03:24:33;;;;;;;;;;;;;;;22.73;39.68;94873.53;2001121;29;1645;-71
2022/03/03 03:25:37;;;;;;;;;;;;;;;22.78;39.59;94877.16;2001895;29;1166;-71
2022/03/03 03:26:39;;;;;;;;;;;;;;;22.70;39.73;94879.31;2002369;29;1669;-71
2022/03/03 03:27:41;;;;;;;;;;;;;;;22.66;39.83;94873.59;2002209;29;1717;-71
2022/03/03 03:28:43;;;;;;;;;;;;;;;22.67;39.84;94877.91;2002700;29;1210;-72
2022/03/03 03:29:45;;;;;;;;;;;;;;;22.61;39.90;94876.13;2001428;29;1758;-71
2022/03/03 03:30:47;;;;;;;;;;;;;;;22.63;39.86;94871.38;2001603;29;1523;-70
2022/03/03 03:31:48;;;;;;;;;;;;;;;22.57;39.85;94870.41;1993920;29;1618;-70
2022/03/03 03:32:50;;;;;;;;;;;;;;;22.62;39.79;94877.75;2001614;29;1878;-70
2022/03/03 03:33:52;;;;;;;;;;;;;;;22.64;39.63;94871.16;2002286;29;1631;-71
2022/03/03 03:34:53;;;;;;;;;;;;;;;22.70;39.67;94876.66;1998461;29;1679;-71
2022/03/03 03:35:56;;;;;;;;;;;;;;;22.72;39.42;94871.91;2001790;29;1687;-71
2022/03/03 03:36:57;;;;;;;;;;;;;;;22.66;39.51;94871.75;1994278;29;1667;-71
2022/03/03 03:37:59;;;;;;;;;;;;;;;22.64;39.76;94870.31;1994236;29;1907;-71
2022/03/03 03:39:01;;;;;;;;;;;;;;;22.63;39.84;94871.38;2001772;29;1489;-71
2022/03/03 03:40:03;;;;;;;;;;;;;;;22.61;39.54;94876.94;2002528;29;1133;-70
2022/03/03 03:41:05;;;;;;;;;;;;;;;22.58;39.77;94876.56;2002203;29;1628;-72
2022/03/03 03:42:08;;;;;;;;;;;;;;;22.55;39.59;94874.34;2001529;29;1573;-72
2022/03/03 03:43:09;;;;;;;;;;;;;;;22.52;39.57;94874.78;1994248;29;1721;-70
2022/03/03 03:44:11;;;;;;;;;;;;;;;22.47;40.06;94879.97;2000792;29;1473;-70
2022/03/03 03:45:14;;;;;;;;;;;;;;;22.49;39.73;94870.69;2001867;29;1687;-69
2022/03/03 03:46:15;;;;;;;;;;;;;;;22.50;39.62;94868.81;1998077;29;1110;-69
2022/03/03 03:47:17;;;;;;;;;;;;;;;22.42;39.87;94873.41;2001642;29;1645;-70
2022/03/03 03:48:19;;;;;;;;;;;;;;;22.40;39.78;94874.69;2001743;29;1137;-70
2022/03/03 03:49:20;;;;;;;;;;;;;;;22.41;40.06;94870.97;2001455;29;1115;-70
2022/03/03 03:50:22;;;;;;;;;;;;;;;22.42;39.86;94877.94;2001673;29;1686;-70
2022/03/03 03:51:24;;;;;;;;;;;;;;;22.39;39.82;94876.53;2001948;29;1623;-70
2022/03/03 03:52:26;;;;;;;;;;;;;;;22.39;39.87;94868.50;2001013;29;1836;-70
2022/03/03 03:53:27;;;;;;;;;;;;;;;22.40;39.87;94872.03;2001644;29;1527;-70
2022/03/03 03:54:29;;;;;;;;;;;;;;;22.39;39.83;94867.69;2000903;29;1607;-70
2022/03/03 03:55:30;;;;;;;;;;;;;;;22.38;40.16;94861.53;2001304;29;1178;-70
2022/03/03 03:56:32;;;;;;;;;;;;;;;22.41;39.75;94866.44;1998795;29;1677;-70
2022/03/03 03:57:34;;;;;;;;;;;;;;;22.40;39.74;94866.69;2000738;29;1993;-70
2022/03/03 03:58:36;;;;;;;;;;;;;;;22.46;39.68;94863.13;2001426;29;1496;-70
2022/03/03 03:59:37;;;;;;;;;;;;;;;22.43;39.85;94866.22;2002240;29;1121;-70
2022/03/03 04:00:39;;;;;;;;;;;;;;;22.52;39.39;94864.91;2001840;29;1570;-69
2022/03/03 04:01:41;;;;;;;;;;;;;;;22.57;39.49;94869.56;2001453;29;1088;-71
2022/03/03 04:02:43;;;;;;;;;;;;;;;;;;2000633;29;1646;-72
2022/03/03 04:03:44;;;;;;;;;;;;;;;22.56;39.38;94876.78;2002083;29;1106;-73
2022/03/03 04:04:46;;;;;;;;;;;;;;;22.68;38.99;94875.03;2002105;29;1395;-72
2022/03/03 04:05:48;;;;;;;;;;;;;;;22.63;39.18;94874.06;2001408;29;1200;-73
2022/03/03 04:06:49;;;;;;;;;;;;;;;22.70;39.08;94868.63;2001302;29;1650;-72
2022/03/03 04:07:51;;;;;;;;;;;;;;;22.75;38.91;94872.28;1997051;29;1701;-73
2022/03/03 04:08:53;;;;;;;;;;;;;;;22.80;39.26;94868.94;2001114;29;1232;-72
2022/03/03 04:09:54;;;;;;;;;;;;;;;22.87;39.07;94867.00;2001124;29;1579;-74
2022/03/03 04:10:56;;;;;;;;;;;;;;;22.90;38.89;94863.88;2001258;29;1667;-74
2022/03/03 04:11:58;;;;;;;;;;;;;;;22.77;39.17;94869.34;2002354;29;1122;-72
2022/03/03 04:12:59;;;;;;;;;;;;;;;22.75;39.20;94874.13;2001871;29;1522;-73
2022/03/03 04:14:01;;;;;;;;;;;;;;;22.73;39.15;94866.31;2002032;29;1463;-71
2022/03/03 04:15:03;;;;;;;;;;;;;;;22.70;39.27;94863.28;2002249;29;1157;-72
2022/03/03 04:16:06;;;;;;;;;;;;;;;22.61;39.66;94860.88;2002120;29;1105;-73
2022/03/03 04:17:07;;;;;;;;;;;;;;;22.58;39.84;94861.34;2002008;29;1517;-73
2022/03/03 04:18:10;;;;;;;;;;;;;;;22.52;40.09;94851.53;2001670;29;1915;-74
2022/03/03 04:19:12;;;;;;;;;;;;;;;22.56;39.85;94860.72;1998167;29;1542;-72
2022/03/03 04:20:14;;;;;;;;;;;;;;;22.50;39.79;94842.91;2002280;29;1640;-73
2022/03/03 04:21:15;;;;;;;;;;;;;;;22.53;39.73;94842.47;2002054;29;1591;-74
2022/03/03 04:22:17;;;;;;;;;;;;;;;22.52;39.80;94846.19;2001288;29;1714;-74
2022/03/03 04:23:19;;;;;;;;;;;;;;;22.51;39.99;94849.88;2001475;29;1568;-73
2022/03/03 04:24:21;;;;;;;;;;;;;;;22.54;40.05;94857.47;2002584;29;1629;-72
2022/03/03 04:25:22;;;;;;;;;;;;;;;22.58;39.85;94872.03;2002310;29;1192;-72
2022/03/03 04:26:24;;;;;;;;;;;;;;;22.54;39.92;94870.00;2002223;29;2306;-72
2022/03/03 04:27:26;;;;;;;;;;;;;;;22.57;39.98;94870.41;1995248;29;1738;-71
2022/03/03 04:28:28;;;;;;;;;;;;;;;22.52;39.87;94864.09;2002741;29;1668;-71
2022/03/03 04:29:29;;;;;;;;;;;;;;;22.49;39.89;94862.66;2000051;29;1669;-71
2022/03/03 04:30:31;;;;;;;;;;;;;;;22.56;40.21;94866.06;2002282;29;1538;-72
2022/03/03 04:31:33;;;;;;;;;;;;;;;22.58;39.76;94856.00;2002234;29;1693;-72
2022/03/03 04:32:35;;;;;;;;;;;;;;;22.60;39.88;94863.81;2002020;29;1709;-73
2022/03/03 04:33:37;;;;;;;;;;;;;;;22.63;39.93;94864.16;2002667;29;1682;-72
2022/03/03 04:34:39;;;;;;;;;;;;;;;22.60;40.17;94858.47;2002530;29;1579;-72
2022/03/03 04:35:41;;;;;;;;;;;;;;;22.62;40.09;94853.69;2003277;29;1432;-73
2022/03/03 04:36:42;;;;;;;;;;;;;;;22.57;39.92;94850.84;2002637;29;1703;-72
2022/03/03 04:37:44;;;;;;;;;;;;;;;22.56;40.11;94855.38;2002633;29;1520;-72
2022/03/03 04:38:47;;;;;;;;;;;;;;;22.52;40.19;94850.72;2002476;29;1982;-72
2022/03/03 04:39:49;;;;;;;;;;;;;;;22.48;40.16;94844.97;2002375;29;1527;-73
2022/03/03 04:40:51;;;;;;;;;;;;;;;22.48;40.16;94850.31;1999442;29;1806;-73
2022/03/03 04:41:52;;;;;;;;;;;;;;;22.51;40.39;94852.56;2002890;29;1523;-73
2022/03/03 04:42:54;;;;;;;;;;;;;;;22.50;40.38;94850.94;2003055;29;1711;-73
2022/03/03 04:43:56;;;;;;;;;;;;;;;22.48;40.33;94860.22;2003333;29;1566;-73
2022/03/03 04:44:57;;;;;;;;;;;;;;;22.47;40.51;94856.72;2003566;29;1027;-73
2022/03/03 04:45:59;;;;;;;;;;;;;;;22.50;40.40;94853.59;2003269;29;1648;-72
2022/03/03 04:47:01;;;;;;;;;;;;;;;22.49;40.19;94851.16;2003071;29;1682;-73
2022/03/03 04:48:03;;;;;;;;;;;;;;;22.48;40.14;94844.16;2002985;29;1538;-73
2022/03/03 04:49:05;;;;;;;;;;;;;;;22.47;40.38;94848.69;2003253;29;1705;-73
2022/03/03 04:50:07;;;;;;;;;;;;;;;22.48;40.29;94852.19;2002913;29;1569;-72
2022/03/03 04:51:09;;;;;;;;;;;;;;;22.48;40.45;94850.31;2003200;29;1631;-73
2022/03/03 04:52:10;;;;;;;;;;;;;;;22.48;40.27;94850.31;1999297;29;1017;-73
2022/03/03 04:53:12;;;;;;;;;;;;;;;22.50;40.49;94852.78;2002452;29;1654;-73
2022/03/03 04:54:14;;;;;;;;;;;;;;;22.51;40.17;94849.06;2001859;29;1659;-73
2022/03/03 04:55:15;;;;;;;;;;;;;;;22.51;41.09;94849.06;2002578;29;1737;-73
2022/03/03 04:56:18;;;;;;;;;;;;;;;22.54;40.15;94848.63;2003690;29;1114;-74
2022/03/03 04:57:19;;;;;;;;;;;;;;;22.60;40.17;94858.47;2001981;29;1492;-73
2022/03/03 04:58:21;;;;;;;;;;;;;;;22.54;40.35;94846.78;2002440;29;1907;-74
2022/03/03 04:59:23;;;;;;;;;;;;;;;22.52;40.22;94851.53;2003556;29;1040;-73
2022/03/03 05:00:25;;;;;;;;;;;;;;;22.49;40.20;94851.97;2002729;29;1767;-74
2022/03/03 05:01:27;;;;;;;;;;;;;;;22.50;40.23;94844.78;2003651;29;1605;-73
2022/03/03 05:02:29;;;;;;;;;;;;;;;22.48;40.51;94844.97;2000105;29;1712;-73
2022/03/03 05:03:31;;;;;;;;;;;;;;;22.54;40.31;94860.16;1993579;29;1677;-70
2022/03/03 05:04:33;;;;;;;;;;;;;;;22.60;40.12;94847.75;2002514;29;1544;-70
2022/03/03 05:05:35;;;;;;;;;;;;;;;22.62;40.14;94854.50;2002096;29;1636;-71
2022/03/03 05:06:37;;;;;;;;;;;;;;;22.63;40.02;94850.81;1995452;29;1119;-71
2022/03/03 05:07:38;;;;;;;;;;;;;;;22.69;39.99;94849.09;2002385;29;1527;-71
2022/03/03 05:08:40;;;;;;;;;;;;;;;22.68;40.58;94861.66;2003082;29;1078;-68
2022/03/03 05:09:42;;;;;;;;;;;;;;;22.80;39.65;94847.53;2002580;29;1700;-68
2022/03/03 05:10:43;;;;;;;;;;;;;;;22.68;40.34;94850.13;2003056;29;1619;-70
2022/03/03 05:11:45;;;;;;;;;;;;;;;22.68;40.46;94845.59;2003328;29;1566;-70
2022/03/03 05:12:47;;;;;;;;;;;;;;;22.85;39.99;94861.03;2002561;29;1672;-68
2022/03/03 05:13:48;;;;;;;;;;;;;;;21.19;31.80;94844.47;1998731;29;1518;-69
2022/03/03 05:14:50;;;;;;;;;;;;;;;19.16;33.72;94846.91;2002917;29;1551;-66
2022/03/03 05:15:51;;;;;;;;;;;;;;;17.96;31.18;94856.06;2002566;29;1659;-68
2022/03/03 05:16:53;;;;;;;;;;;;;;;16.77;31.78;94853.84;2002594;29;1089;-69
2022/03/03 05:17:55;;;;;;;;;;;;;;;16.11;32.17;94852.94;2002502;29;1661;-69
2022/03/03 05:18:56;;;;;;;;;;;;;;;15.60;32.58;94850.06;2002914;29;1915;-69
2022/03/03 05:19:58;;;;;;;;;;;;;;;15.41;33.99;94849.53;2003083;29;1025;-68
2022/03/03 05:21:00;;;;;;;;;;;;;;;15.47;32.98;94853.28;2002499;29;1698;-68
2022/03/03 05:22:02;;;;;;;;;;;;;;;15.22;33.08;94855.28;1995067;29;986;-69
2022/03/03 05:23:06;;;;;;;;;;;;;;;15.24;32.76;94858.56;2001851;29;1668;-69
2022/03/03 05:24:10;;;;;;;;;;;;;;;15.02;32.98;94858.38;2002103;29;1829;-68
2022/03/03 05:25:12;;;;;;;;;;;;;;;15.22;33.51;94858.72;1998787;29;1635;-67
2022/03/03 05:26:13;;;;;;;;;;;;;;;15.12;32.17;94857.34;2002817;29;1712;-68
2022/03/03 05:27:15;;;;;;;;;;;;;;;14.87;32.13;94865.41;2002290;29;1619;-68
2022/03/03 05:28:17;;;;;;;;;;;;;;;14.71;32.01;94868.94;2002389;29;1694;-68